Time;durP1;ratioP1;P1;durP2;ratioP2;P2;SDS_P1;SDS_P2;PMS_P1;PMS_P2;Temp;Humidity;BMP_temperature;BMP_pressure;BME280_temperature;BME280_humidity;BME280_pressure;Samples;Min_cycle;Max_cycle;Signal;HPM_P1;HPM_P2
2022/10/06 00:00:27;;;;;;;34.35;2.28;;;;;;;13.79;68.94;101979.19;4991539;28;20557;-78
2022/10/06 00:02:52;;;;;;;21.55;2.63;;;;;;;13.86;67.75;101984.78;4992316;28;20038;-78
2022/10/06 00:05:17;;;;;;;31.23;2.30;;;;;;;13.84;68.58;101992.22;4983520;28;20030;-77
2022/10/06 00:07:43;;;;;;;27.73;2.38;;;;;;;13.82;69.92;101989.69;4991726;28;20070;-78
2022/10/06 00:10:09;;;;;;;20.42;2.00;;;;;;;13.81;70.59;102003.38;4992365;28;20109;-77
2022/10/06 00:12:52;;;;;;;31.58;2.95;;;;;;;13.81;69.57;102008.81;4992361;28;20562;-77
2022/10/06 00:15:21;;;;;;;25.60;2.38;;;;;;;13.86;69.79;102021.81;4988710;28;20049;-77
2022/10/06 00:17:47;;;;;;;26.48;2.30;;;;;;;13.86;68.92;102019.13;4993773;28;20530;-76
2022/10/06 00:20:13;;;;;;;18.83;1.83;;;;;;;13.82;69.23;102015.91;4995013;28;20105;-77
2022/10/06 00:22:41;;;;;;;22.25;2.42;;;;;;;13.79;69.32;102030.63;4994963;28;20105;-78
2022/10/06 00:25:06;;;;;;;;;;;;;;;13.78;69.93;102042.47;4994635;28;20565;-78
2022/10/06 00:27:36;;;;;;;28.25;2.58;;;;;;;13.74;69.80;102041.09;5004405;28;19972;-77
2022/10/06 00:30:03;;;;;;;29.42;2.40;;;;;;;13.70;68.87;102053.31;4995288;28;20022;-77
2022/10/06 00:32:28;;;;;;;30.02;2.22;;;;;;;13.67;68.46;102056.38;4995176;28;20044;-76
2022/10/06 00:34:53;;;;;;;19.70;2.00;;;;;;;13.66;69.24;102065.47;4995392;28;20510;-78
2022/10/06 00:37:19;;;;;;;27.10;2.47;;;;;;;13.69;68.19;102053.47;4994724;28;20439;-77
2022/10/06 00:39:44;;;;;;;25.10;2.80;;;;;;;13.70;68.60;102069.53;4995272;28;20437;-77
2022/10/06 00:42:22;;;;;;;14.18;1.85;;;;;;;13.67;68.54;102078.00;4995836;28;20049;-77
2022/10/06 00:44:48;;;;;;;20.05;2.33;;;;;;;13.62;68.11;102083.09;4995186;28;20023;-77
2022/10/06 00:47:14;;;;;;;24.42;2.88;;;;;;;13.58;67.56;102084.44;4999380;28;20081;-78
2022/10/06 00:49:40;;;;;;;25.10;2.05;;;;;;;13.61;67.26;102086.78;4993381;28;20030;-77
2022/10/06 00:52:08;;;;;;;25.00;2.75;;;;;;;13.59;67.65;102086.97;4994842;28;20030;-78
2022/10/06 00:54:35;;;;;;;37.17;3.15;;;;;;;13.58;67.90;102096.09;4994223;28;20049;-78
2022/10/06 00:57:00;;;;;;;21.38;2.10;;;;;;;13.58;67.98;102100.66;4983020;28;20434;-78
2022/10/06 00:59:26;;;;;;;20.48;2.17;;;;;;;13.55;68.66;102106.44;4993246;28;20106;-77
2022/10/06 01:02:00;;;;;;;51.40;2.90;;;;;;;13.49;67.86;102104.41;4995044;28;20022;-77
2022/10/06 01:04:26;;;;;;;20.15;2.15;;;;;;;13.46;67.52;102112.88;4993304;28;20470;-77
2022/10/06 01:06:54;;;;;;;29.77;2.28;;;;;;;13.42;67.61;102119.63;4994278;28;20391;-76
2022/10/06 01:09:20;;;;;;;22.38;2.40;;;;;;;13.42;67.75;102109.63;4993777;28;20190;-78
2022/10/06 01:11:48;;;;;;;26.30;2.22;;;;;;;13.37;68.66;102120.97;4993575;28;20474;-77
2022/10/06 01:14:14;;;;;;;29.58;2.20;;;;;;;13.35;69.32;102133.81;4994802;28;20022;-77
2022/10/06 01:16:41;;;;;;;32.80;2.83;;;;;;;13.34;69.67;102120.47;4979018;28;20114;-78
2022/10/06 01:19:12;;;;;;;26.63;2.20;;;;;;;13.33;69.49;102133.13;4992743;28;20034;-78
2022/10/06 01:21:42;;;;;;;21.65;1.90;;;;;;;13.31;69.54;102145.97;4992872;28;20038;-78
2022/10/06 01:24:08;;;;;;;25.85;2.28;;;;;;;13.31;69.04;102143.28;4993166;28;20062;-79
2022/10/06 01:26:38;;;;;;;27.75;2.03;;;;;;;13.27;69.75;102147.34;4994570;28;20132;-78
2022/10/06 01:29:03;;;;;;;28.88;2.45;;;;;;;13.26;69.14;102151.03;4981798;28;20042;-78
2022/10/06 01:31:29;;;;;;;24.38;1.90;;;;;;;13.23;69.01;102154.06;4993428;28;20030;-78
2022/10/06 01:33:54;;;;;;;27.13;2.25;;;;;;;13.22;68.85;102165.03;4993997;28;20038;-78
2022/10/06 01:36:20;;;;;;;29.10;2.90;;;;;;;13.20;69.55;102167.91;4992517;28;20026;-78
2022/10/06 01:38:45;;;;;;;26.88;2.13;;;;;;;13.17;70.31;102173.66;4994410;28;20105;-77
2022/10/06 01:41:11;;;;;;;15.38;1.90;;;;;;;13.16;70.76;102180.06;4995043;28;20553;-78
2022/10/06 01:43:36;;;;;;;22.73;2.58;;;;;;;13.18;70.09;102175.34;4995148;28;20026;-78
2022/10/06 01:46:01;;;;;;;21.42;2.45;;;;;;;13.19;69.99;102182.41;4990395;28;20031;-78
2022/10/06 01:48:27;;;;;;;36.95;3.92;;;;;;;13.21;70.10;102176.84;4994078;28;20075;-78
2022/10/06 01:50:53;;;;;;;29.80;3.90;;;;;;;13.23;70.63;102182.94;4994265;28;20034;-79
2022/10/06 01:53:18;;;;;;;20.38;1.88;;;;;;;13.25;70.10;102178.22;4980561;28;20031;-78
2022/10/06 01:55:43;;;;;;;18.65;1.77;;;;;;;13.30;69.42;102176.75;4993146;28;20042;-77
2022/10/06 01:58:09;;;;;;;30.30;2.33;;;;;;;13.35;69.55;102187.91;4993041;28;20030;-77
2022/10/06 02:00:35;;;;;;;22.48;2.70;;;;;;;13.36;70.21;102184.19;4983753;28;20176;-77
2022/10/06 02:03:00;;;;;;;25.70;2.40;;;;;;;13.37;70.57;102185.84;4994086;28;20034;-77
2022/10/06 02:05:26;;;;;;;20.63;1.95;;;;;;;13.41;70.85;102182.84;4993440;28;20496;-77
2022/10/06 02:07:51;;;;;;;21.23;1.90;;;;;;;13.44;70.61;102190.63;5038232;23;20514;-39
2022/10/06 02:10:17;;;;;;;19.25;2.47;;;;;;;13.41;71.53;102190.97;4993134;28;20075;-37
2022/10/06 02:12:42;;;;;;;18.85;2.13;;;;;;;13.39;71.31;102188.41;5009707;28;20121;-39
2022/10/06 02:15:09;;;;;;;19.98;2.28;;;;;;;13.41;71.04;102196.38;5007113;28;20030;-39
2022/10/06 02:17:36;;;;;;;39.78;3.20;;;;;;;13.38;71.92;102203.78;5005117;28;20376;-39
2022/10/06 02:20:05;;;;;;;26.40;2.00;;;;;;;13.38;72.33;102213.78;5010652;28;20038;-38
2022/10/06 02:22:31;;;;;;;28.30;2.35;;;;;;;13.36;72.85;102213.91;5010814;28;20699;-39
2022/10/06 02:24:56;;;;;;;28.17;2.00;;;;;;;13.34;72.66;102220.50;5010744;28;20022;-39
2022/10/06 02:27:22;;;;;;;28.30;2.53;;;;;;;13.26;72.69;102221.34;5010940;28;20061;-39
2022/10/06 02:29:48;;;;;;;28.23;2.30;;;;;;;13.25;72.08;102222.31;5010009;28;20108;-38
2022/10/06 02:32:14;;;;;;;26.00;1.98;;;;;;;13.26;72.04;102229.44;5002407;28;20032;-38
2022/10/06 02:34:39;;;;;;;23.90;2.47;;;;;;;13.23;72.25;102231.63;5005083;28;20034;-40
2022/10/06 02:37:04;;;;;;;12.88;2.00;;;;;;;13.16;71.57;102234.13;5011055;28;20088;-39
2022/10/06 02:39:30;;;;;;;22.70;2.47;;;;;;;13.14;70.75;102239.72;5010385;28;20038;-39
2022/10/06 02:41:55;;;;;;;30.27;2.67;;;;;;;13.13;70.71;102243.41;5010028;28;20021;-39
2022/10/06 02:44:23;;;;;;;35.35;3.40;;;;;;;13.11;71.01;102240.03;5010334;28;20465;-40
2022/10/06 02:46:49;;;;;;;20.55;2.72;;;;;;;13.13;71.10;102259.63;5001435;28;20477;-39
2022/10/06 02:49:15;;;;;;;28.60;2.47;;;;;;;13.13;70.92;102251.50;5005064;28;20026;-40
2022/10/06 02:51:40;;;;;;;35.67;3.35;;;;;;;13.20;71.02;102264.41;4990507;28;20104;-40
2022/10/06 02:54:05;;;;;;;32.05;2.92;;;;;;;13.23;71.16;102270.31;5010405;28;20495;-39
2022/10/06 02:56:30;;;;;;;24.58;3.45;;;;;;;13.20;71.51;102276.03;5010003;28;20412;-39
2022/10/06 02:58:56;;;;;;;20.05;1.98;;;;;;;13.19;71.70;102277.03;5010633;28;20486;-39
2022/10/06 03:01:24;;;;;;;23.27;3.08;;;;;;;13.18;72.17;102283.47;5010874;28;20709;-39
2022/10/06 03:03:50;;;;;;;30.65;2.55;;;;;;;13.18;72.27;102278.06;5006514;28;20033;-39
2022/10/06 03:06:22;;;;;;;23.45;2.03;;;;;;;13.22;72.63;102282.16;5009610;28;20026;-40
2022/10/06 03:08:55;;;;;;;24.55;2.58;;;;;;;13.20;72.49;102286.84;4992943;28;20068;-40
2022/10/06 03:11:23;;;;;;;31.10;2.85;;;;;;;13.14;72.99;102292.94;4991030;28;20113;-40
2022/10/06 03:13:50;;;;;;;26.77;3.55;;;;;;;13.11;72.61;102306.75;4997843;28;20030;-40
2022/10/06 03:16:17;;;;;;;23.38;2.08;;;;;;;13.07;72.32;102297.28;5010048;28;20134;-39
2022/10/06 03:18:48;;;;;;;23.98;2.00;;;;;;;13.05;71.55;102310.09;5009164;28;20033;-39
2022/10/06 03:21:14;;;;;;;29.23;2.65;;;;;;;13.00;71.54;102307.88;5010903;28;20438;-40
2022/10/06 03:23:41;;;;;;;31.90;2.67;;;;;;;13.00;71.12;102307.03;5010882;28;20033;-39
2022/10/06 03:26:07;;;;;;;16.20;1.92;;;;;;;12.99;71.30;102321.59;5009962;28;20034;-39
2022/10/06 03:28:32;;;;;;;14.55;2.10;;;;;;;12.96;71.05;102331.69;5010024;28;20503;-40
2022/10/06 03:31:02;;;;;;;22.38;2.05;;;;;;;12.98;70.81;102330.69;5008119;28;20090;-41
2022/10/06 03:33:27;;;;;;;29.75;2.35;;;;;;;12.99;70.91;102333.22;5009930;28;20121;-39
2022/10/06 03:36:12;;;;;;;33.55;2.75;;;;;;;12.98;71.65;102327.97;5006488;28;20034;-40
2022/10/06 03:38:38;;;;;;;24.05;2.58;;;;;;;12.98;71.73;102341.50;5000157;28;20029;-40
2022/10/06 03:41:10;;;;;;;17.05;2.05;;;;;;;12.93;72.28;102334.72;5010723;28;20034;-40
2022/10/06 03:43:38;;;;;;;23.85;2.83;;;;;;;12.89;72.48;102336.03;5010620;28;20034;-40
2022/10/06 03:46:04;;;;;;;;;;;;;;;12.85;73.06;102342.78;4983777;28;20053;-40
2022/10/06 03:48:32;;;;;;;26.98;2.50;;;;;;;12.81;72.82;102348.66;5007362;28;19917;-40
2022/10/06 03:51:02;;;;;;;23.90;1.88;;;;;;;12.77;72.74;102356.25;5003764;28;20036;-39
2022/10/06 03:53:28;;;;;;;23.52;2.40;;;;;;;12.76;72.50;102357.25;5009217;28;20030;-40
2022/10/06 03:56:03;;;;;;;17.02;1.95;;;;;;;12.76;72.86;102369.91;5014110;28;20030;-39
2022/10/06 03:58:29;;;;;;;27.17;2.47;;;;;;;12.74;73.00;102370.94;5011243;28;20033;-39
2022/10/06 04:01:04;;;;;;;24.75;2.53;;;;;;;12.73;72.83;102376.47;5013931;28;20084;-40
2022/10/06 04:03:29;;;;;;;23.88;3.25;;;;;;;12.72;72.63;102383.75;5013520;28;20488;-40
2022/10/06 04:05:56;;;;;;;36.20;2.63;;;;;;;12.69;72.81;102383.19;5013988;28;20026;-39
2022/10/06 04:08:23;;;;;;;26.35;2.47;;;;;;;12.69;72.24;102384.06;5013577;28;20141;-39
2022/10/06 04:10:48;;;;;;;33.80;2.60;;;;;;;12.68;72.67;102378.81;5013854;28;20384;-40
2022/10/06 04:13:17;;;;;;;22.33;2.35;;;;;;;12.68;72.00;102387.75;5013190;28;20030;-40
2022/10/06 04:15:44;;;;;;;21.27;1.92;;;;;;;12.70;72.32;102393.00;5013293;28;20030;-39
2022/10/06 04:18:10;;;;;;;21.90;2.58;;;;;;;12.72;72.61;102396.41;5013555;28;20026;-40
2022/10/06 04:20:35;;;;;;;22.15;2.42;;;;;;;12.71;72.28;102400.94;5013586;28;20033;-39
2022/10/06 04:23:01;;;;;;;31.35;3.35;;;;;;;12.69;72.33;102402.09;5013694;28;20520;-39
2022/10/06 04:25:26;;;;;;;19.98;2.22;;;;;;;12.67;71.69;102409.53;5013700;28;20026;-40
2022/10/06 04:27:52;;;;;;;29.20;2.53;;;;;;;12.66;71.64;102411.38;5013797;28;20022;-39
2022/10/06 04:30:17;;;;;;;27.38;2.50;;;;;;;12.66;72.24;102415.94;5013465;28;20060;-39
2022/10/06 04:32:43;;;;;;;20.95;1.50;;;;;;;12.63;72.47;102414.38;5013537;28;20603;-39
2022/10/06 04:35:09;;;;;;;26.65;2.22;;;;;;;12.60;72.66;102414.69;5013056;28;20041;-44
2022/10/06 04:37:34;;;;;;;29.67;3.03;;;;;;;12.57;73.05;102419.59;5013857;28;20096;-40
2022/10/06 04:40:00;;;;;;;19.30;2.08;;;;;;;12.52;73.12;102423.59;5013349;28;20034;-41
2022/10/06 04:42:25;;;;;;;13.45;1.88;;;;;;;12.47;73.22;102423.19;5013528;28;20488;-40
2022/10/06 04:44:51;;;;;;;41.28;2.92;;;;;;;12.46;72.96;102429.63;5012997;28;20437;-40
2022/10/06 04:47:16;;;;;;;34.33;2.72;;;;;;;12.44;73.38;102430.78;4995892;28;20038;-40
2022/10/06 04:49:41;;;;;;;27.83;2.78;;;;;;;12.41;73.63;102433.78;4993403;28;20085;-40
2022/10/06 04:52:07;;;;;;;30.30;5.22;;;;;;;12.41;74.15;102436.50;5009067;28;20034;-38
2022/10/06 04:54:32;;;;;;;30.38;3.92;;;;;;;12.35;74.74;102432.56;5009675;28;20060;-40
2022/10/06 04:56:57;;;;;;;25.65;3.17;;;;;;;12.30;75.02;102441.13;4981504;28;20065;-40
2022/10/06 05:00:21;;;;;;;21.98;1.90;;;;;;;12.27;75.37;102451.38;5010786;28;20449;-40
2022/10/06 05:02:08;;;;;;;17.33;2.17;;;;;;;12.26;75.81;102450.50;5009120;28;20042;-40
2022/10/06 05:04:33;;;;;;;25.30;2.38;;;;;;;12.24;75.76;102457.94;5000525;28;20113;-40
2022/10/06 05:06:59;;;;;;;27.80;2.50;;;;;;;12.22;75.66;102465.34;4993170;28;20065;-40
2022/10/06 05:09:24;;;;;;;19.52;2.20;;;;;;;12.22;75.66;102475.28;5008856;28;20440;-40
2022/10/06 05:11:49;;;;;;;31.70;3.67;;;;;;;12.23;75.90;102469.72;5012676;28;20453;-40
2022/10/06 05:14:14;;;;;;;33.72;2.65;;;;;;;12.24;75.75;102467.88;5012565;28;20088;-40
2022/10/06 05:16:41;;;;;;;28.40;2.95;;;;;;;12.24;76.06;102470.56;5012774;28;20096;-40
2022/10/06 05:19:07;;;;;;;30.55;2.10;;;;;;;12.25;75.76;102472.28;5012796;28;20044;-40
2022/10/06 05:21:32;;;;;;;22.75;1.95;;;;;;;12.24;75.94;102474.13;4995644;28;20026;-39
2022/10/06 05:23:58;;;;;;;25.55;3.53;;;;;;;12.25;76.07;102480.38;4993068;28;20399;-39
2022/10/06 05:26:26;;;;;;;31.90;2.78;;;;;;;12.24;76.72;102478.66;4993089;28;20022;-40
2022/10/06 05:28:52;;;;;;;15.63;2.00;;;;;;;12.23;77.39;102482.38;4992916;28;20053;-40
2022/10/06 05:31:21;;;;;;;21.08;2.80;;;;;;;12.22;77.28;102486.09;4992838;28;20612;-39
2022/10/06 05:33:46;;;;;;;24.95;2.20;;;;;;;12.23;77.54;102496.72;4992697;28;20054;-39
2022/10/06 05:36:19;;;;;;;20.45;2.20;;;;;;;12.23;77.49;102498.56;5004453;28;20045;-40
2022/10/06 05:38:45;;;;;;;21.85;1.77;;;;;;;12.22;77.74;102502.28;5012088;28;20061;-39
2022/10/06 05:41:17;;;;;;;17.35;2.00;;;;;;;12.18;77.94;102519.78;5011666;28;20041;-39
2022/10/06 05:43:43;;;;;;;23.15;2.50;;;;;;;12.16;78.48;102519.06;5011872;28;20036;-39
2022/10/06 05:46:19;;;;;;;24.48;2.60;;;;;;;12.15;78.44;102523.63;5011513;28;20040;-38
2022/10/06 05:48:46;;;;;;;24.38;2.33;;;;;;;12.14;78.17;102521.06;5012260;28;20033;-39
2022/10/06 05:51:12;;;;;;;23.55;2.40;;;;;;;12.15;78.01;102520.94;5011534;28;20026;-38
2022/10/06 05:53:38;;;;;;;23.52;2.38;;;;;;;12.15;78.02;102522.78;5011626;28;20028;-39
2022/10/06 05:56:09;;;;;;;22.10;3.47;;;;;;;12.12;78.21;102528.47;5011367;28;20018;-41
2022/10/06 05:58:35;;;;;;;24.45;2.58;;;;;;;12.15;77.98;102523.63;5011237;28;20034;-39
2022/10/06 06:01:09;;;;;;;27.17;2.70;;;;;;;12.16;78.29;102525.31;5011169;28;20034;-39
2022/10/06 06:03:35;;;;;;;22.38;2.40;;;;;;;12.15;78.37;102528.19;5011463;28;20109;-38
2022/10/06 06:06:01;;;;;;;23.92;2.45;;;;;;;12.14;78.31;102526.47;5010869;28;20030;-40
2022/10/06 06:08:27;;;;;;;20.40;3.13;;;;;;;12.15;78.67;102536.28;5010868;28;20160;-38
2022/10/06 06:10:52;;;;;;;33.08;2.30;;;;;;;12.14;78.87;102542.66;5011361;28;20030;-39
2022/10/06 06:13:21;;;;;;;22.17;2.33;;;;;;;12.15;79.04;102550.63;5010547;28;20034;-39
2022/10/06 06:15:59;;;;;;;21.85;1.90;;;;;;;12.17;79.08;102551.31;5009988;28;20450;-41
2022/10/06 06:18:25;;;;;;;30.10;2.65;;;;;;;12.20;78.89;102552.88;5011130;28;20038;-40
2022/10/06 06:21:04;;;;;;;31.67;2.50;;;;;;;12.22;78.73;102562.50;5010380;28;20049;-40
2022/10/06 06:23:35;;;;;;;29.83;2.38;;;;;;;12.25;78.94;102564.06;5011109;28;20025;-39
2022/10/06 06:26:08;;;;;;;33.08;3.15;;;;;;;12.26;78.68;102568.44;4993232;28;20030;-39
2022/10/06 06:28:35;;;;;;;26.85;3.17;;;;;;;12.33;78.78;102568.72;5010916;28;20033;-38
2022/10/06 06:31:02;;;;;;;31.77;3.55;;;;;;;12.39;78.02;102574.34;5010765;28;20041;-40
2022/10/06 06:33:28;;;;;;;19.33;2.20;;;;;;;12.46;77.45;102572.75;5011088;28;20109;-39
2022/10/06 06:35:54;;;;;;;20.92;2.53;;;;;;;12.59;76.86;102582.34;5011069;28;20036;-40
2022/10/06 06:38:19;;;;;;;22.85;2.40;;;;;;;12.68;76.10;102584.94;4993305;28;20026;-40
2022/10/06 06:40:45;;;;;;;18.88;2.20;;;;;;;12.72;76.20;102580.94;5011116;28;20088;-40
2022/10/06 06:43:11;;;;;;;23.00;2.38;;;;;;;12.69;75.98;102596.59;5011075;28;20029;-40
2022/10/06 06:45:37;;;;;;;33.65;2.70;;;;;;;12.77;76.05;102594.00;5010836;28;20018;-39
2022/10/06 06:48:04;;;;;;;30.30;2.45;;;;;;;12.80;75.54;102603.66;5010630;28;20053;-39
2022/10/06 06:50:30;;;;;;;35.88;3.78;;;;;;;12.86;75.72;102608.44;5009758;28;20061;-39
2022/10/06 06:52:55;;;;;;;19.88;2.42;;;;;;;12.91;75.54;102611.53;5009611;28;20398;-39
2022/10/06 06:55:21;;;;;;;27.45;2.72;;;;;;;12.93;75.43;102615.78;5009224;28;20041;-39
2022/10/06 06:57:48;;;;;;;36.88;3.35;;;;;;;13.00;75.14;102626.81;5010891;28;20053;-38
2022/10/06 07:00:15;;;;;;;30.40;2.77;;;;;;;13.05;75.22;102629.06;5010652;28;20488;-39
2022/10/06 07:02:41;;;;;;;21.70;2.13;;;;;;;13.08;75.15;102629.59;4992610;28;20314;-39
2022/10/06 07:05:06;;;;;;;31.50;3.15;;;;;;;13.15;74.16;102629.81;5010392;28;20109;-39
2022/10/06 07:07:32;;;;;;;41.92;2.50;;;;;;;13.21;74.58;102625.66;5010171;28;20050;-39
2022/10/06 07:09:57;;;;;;;29.60;2.42;;;;;;;13.31;74.61;102627.28;5010465;28;20029;-39
2022/10/06 07:12:24;;;;;;;28.30;2.42;;;;;;;13.33;73.68;102632.56;5010509;28;20389;-39
2022/10/06 07:26:02;;;;;;;17.88;1.95;;;;;;;14.33;68.67;102646.56;4970159;28;20087;-39
2022/10/06 07:28:29;;;;;;;18.52;2.10;;;;;;;15.12;68.35;102654.25;5005327;28;20172;-39
2022/10/06 07:30:55;;;;;;;14.20;1.75;;;;;;;15.96;64.41;102657.63;5014595;28;20026;-40
2022/10/06 07:33:20;;;;;;;19.38;2.47;;;;;;;17.04;61.53;102673.31;5014464;28;20420;-40
2022/10/06 07:35:46;;;;;;;20.17;2.00;;;;;;;17.82;58.10;102671.31;5014552;28;20026;-40
2022/10/06 07:38:11;;;;;;;14.13;1.90;;;;;;;18.36;55.48;102678.41;5013884;28;20036;-42
2022/10/06 07:40:37;;;;;;;19.15;2.17;;;;;;;18.18;54.01;102679.63;5014356;28;20022;-40
2022/10/06 07:43:02;;;;;;;14.02;1.90;;;;;;;18.65;53.80;102683.00;5014206;28;20029;-40
2022/10/06 07:45:37;;;;;;;14.90;2.20;;;;;;;18.61;52.34;102677.03;5014084;28;20125;-40
2022/10/06 07:48:08;;;;;;;12.63;2.38;;;;;;;19.27;52.01;102681.59;5013946;28;20045;-40
2022/10/06 07:50:35;;;;;;;11.90;2.20;;;;;;;19.47;51.00;102695.44;4996431;28;20032;-40
2022/10/06 07:53:06;;;;;;;15.38;2.50;;;;;;;20.29;49.47;102696.72;4996656;28;20100;-40
2022/10/06 07:55:31;;;;;;;12.82;1.95;;;;;;;20.17;47.51;102707.38;5014071;28;20112;-40
2022/10/06 07:57:57;;;;;;;11.88;2.10;;;;;;;19.78;47.72;102706.03;5013830;28;20022;-40
2022/10/06 08:00:22;;;;;;;13.88;1.77;;;;;;;20.11;47.07;102698.06;5013751;28;20030;-40
2022/10/06 08:02:48;;;;;;;10.15;1.50;;;;;;;20.04;47.21;102710.88;5014361;28;20018;-40
2022/10/06 08:05:13;;;;;;;14.05;2.13;;;;;;;20.76;46.11;102709.59;5013618;28;20025;-40
2022/10/06 08:07:39;;;;;;;10.27;1.95;;;;;;;21.03;45.97;102721.47;5013615;28;20437;-40
2022/10/06 08:10:05;;;;;;;19.48;2.20;;;;;;;21.02;44.51;102725.28;5013726;28;20026;-40
2022/10/06 08:12:33;;;;;;;14.23;2.05;;;;;;;20.93;45.35;102731.13;4996036;28;20113;-41
2022/10/06 08:15:05;;;;;;;13.43;1.90;;;;;;;21.45;43.96;102727.69;5013698;28;20029;-40
2022/10/06 08:17:31;;;;;;;21.58;2.38;;;;;;;21.25;43.98;102730.38;4995869;28;20084;-41
2022/10/06 08:19:56;;;;;;;11.93;1.67;;;;;;;21.12;43.38;102737.75;5013550;28;20496;-41
2022/10/06 08:22:26;;;;;;;11.40;1.90;;;;;;;20.74;44.03;102749.16;5013341;28;20109;-40
2022/10/06 08:24:53;;;;;;;14.82;1.92;;;;;;;20.83;44.31;102754.25;5013472;28;20056;-40
2022/10/06 08:27:18;;;;;;;9.38;1.98;;;;;;;21.65;43.70;102741.44;5012852;28;20381;-40
2022/10/06 08:29:43;;;;;;;9.90;1.33;;;;;;;21.55;43.22;102749.22;5013189;28;20034;-40
2022/10/06 08:32:09;;;;;;;11.60;1.98;;;;;;;21.57;42.60;102755.34;5012299;28;20477;-40
2022/10/06 08:34:35;;;;;;;11.82;1.98;;;;;;;21.60;43.28;102754.91;5012941;28;20422;-40
2022/10/06 08:37:01;;;;;;;17.20;2.03;;;;;;;21.44;42.63;102755.31;5012117;28;20108;-40
2022/10/06 08:39:32;;;;;;;17.60;2.13;;;;;;;20.91;44.12;102758.72;5008246;28;20434;-40
2022/10/06 08:41:57;;;;;;;13.20;1.63;;;;;;;21.30;44.37;102757.16;5008978;28;20030;-40
2022/10/06 08:44:23;;;;;;;13.20;1.92;;;;;;;22.01;40.46;102770.34;4990235;28;20061;-40
2022/10/06 08:47:12;;;;;;;16.65;2.42;;;;;;;21.83;41.10;102764.66;5010212;28;20104;-40
2022/10/06 08:49:39;;;;;;;12.25;1.83;;;;;;;22.12;42.00;102772.44;4982109;28;20029;-40
2022/10/06 08:52:14;;;;;;;;;;;;;;;22.21;42.03;102778.56;5003105;28;20030;-42
2022/10/06 08:54:48;;;;;;;9.32;1.73;;;;;;;22.29;41.38;102783.81;5012869;28;19916;-40
2022/10/06 08:57:25;;;;;;;14.15;2.08;;;;;;;21.62;40.88;102782.97;5001153;28;20025;-40
2022/10/06 08:59:53;;;;;;;7.90;1.60;;;;;;;20.70;43.36;102789.78;5011560;28;20049;-40
2022/10/06 09:02:37;;;;;;;15.50;1.98;;;;;;;19.95;44.69;102780.38;5011599;28;20473;-40
2022/10/06 09:05:04;;;;;;;12.35;1.77;;;;;;;19.80;45.20;102780.47;4995159;28;20041;-42
2022/10/06 09:07:40;;;;;;;15.00;1.83;;;;;;;19.37;47.31;102793.22;5011864;28;20041;-40
2022/10/06 09:10:33;;;;;;;14.68;1.83;;;;;;;18.65;47.51;102787.47;5012367;28;20109;-40
2022/10/06 09:13:05;;;;;;;12.70;2.08;;;;;;;18.20;49.98;102796.66;4993759;28;20512;-40
2022/10/06 09:15:49;;;;;;;13.63;1.83;;;;;;;17.47;50.92;102788.00;5012594;28;20034;-40
2022/10/06 09:18:37;;;;;;;24.30;2.63;;;;;;;16.95;52.78;102798.66;4992520;28;20037;-40
2022/10/06 09:21:05;;;;;;;12.48;2.35;;;;;;;16.87;53.98;102813.13;5010820;28;20539;-40
2022/10/06 09:23:48;;;;;;;18.83;2.08;;;;;;;16.77;55.17;102791.59;4993333;28;20152;-40
2022/10/06 09:26:17;;;;;;;34.17;2.45;;;;;;;16.88;54.90;102796.66;5010858;28;20022;-40
2022/10/06 09:28:45;;;;;;;11.93;1.73;;;;;;;16.87;54.04;102799.53;5002687;28;20030;-40
2022/10/06 09:31:28;;;;;;;13.40;2.22;;;;;;;16.86;54.04;102801.41;5012133;28;20034;-39
2022/10/06 09:34:07;;;;;;;14.77;1.48;;;;;;;16.92;54.23;102804.44;5011502;28;20469;-39
2022/10/06 09:36:59;;;;;;;11.55;1.60;;;;;;;16.92;54.74;102801.72;5011689;28;20091;-39
2022/10/06 09:39:31;;;;;;;9.15;1.40;;;;;;;16.88;55.05;102809.41;5011234;28;20030;-39
2022/10/06 09:41:59;;;;;;;12.52;1.92;;;;;;;16.87;55.05;102785.94;5011877;28;20034;-39
2022/10/06 09:44:26;;;;;;;;;;;;;;;16.97;55.07;102810.22;5011896;28;20113;-39
2022/10/06 09:46:52;;;;;;;14.68;2.00;;;;;;;16.75;55.75;102801.75;4994307;28;20384;-39
2022/10/06 09:49:21;;;;;;;14.85;1.83;;;;;;;16.73;53.80;102805.69;5010711;28;20022;-39
2022/10/06 09:52:15;;;;;;;17.42;1.73;;;;;;;16.70;54.86;102812.31;5011173;28;20116;-39
2022/10/06 09:54:43;;;;;;;9.77;1.73;;;;;;;16.41;56.04;102805.59;5011351;28;20026;-39
2022/10/06 09:57:27;;;;;;;19.70;1.95;;;;;;;16.26;56.68;102810.03;5011293;28;20022;-39
2022/10/06 09:59:52;;;;;;;14.27;2.03;;;;;;;16.32;56.71;102817.47;5011103;28;20105;-41
2022/10/06 10:02:35;;;;;;;20.08;2.30;;;;;;;16.31;57.05;102823.94;5010582;28;20584;-40
2022/10/06 10:05:02;;;;;;;16.80;1.50;;;;;;;16.41;55.69;102819.16;5010801;28;20062;-40
2022/10/06 10:07:29;;;;;;;17.60;1.73;;;;;;;16.28;55.77;102823.44;4992338;28;20377;-40
2022/10/06 10:10:20;;;;;;;16.45;2.50;;;;;;;16.43;55.99;102817.13;5010753;28;20069;-40
2022/10/06 10:12:54;;;;;;;18.63;1.95;;;;;;;16.53;55.39;102805.22;5011564;28;20018;-40
2022/10/06 10:15:19;;;;;;;22.25;2.00;;;;;;;16.45;54.97;102820.50;5011037;28;20385;-40
2022/10/06 10:18:11;;;;;;;24.48;2.53;;;;;;;16.41;56.51;102819.16;5004024;28;20022;-40
2022/10/06 10:20:39;;;;;;;28.88;2.80;;;;;;;16.45;55.71;102825.94;4970530;28;20185;-40
2022/10/06 10:23:04;;;;;;;;;;;;;;;16.56;56.05;102829.31;4986656;28;20049;-40
2022/10/06 10:25:47;;;;;;;15.85;2.30;;;;;;;16.60;53.90;102839.69;4991314;28;19925;-40
2022/10/06 10:28:14;;;;;;;19.52;2.55;;;;;;;16.61;52.94;102829.66;4974062;28;20030;-40
2022/10/06 10:30:51;;;;;;;17.10;1.45;;;;;;;16.47;53.93;102833.94;4991819;28;20031;-40
2022/10/06 10:33:26;;;;;;;15.63;1.95;;;;;;;16.57;55.11;102844.63;4991368;28;20041;-40
2022/10/06 10:35:54;;;;;;;11.70;1.60;;;;;;;16.60;55.27;102838.84;4991691;28;20112;-40
2022/10/06 10:38:23;;;;;;;;;;;;;;;16.68;56.01;102847.81;4993035;28;20088;-40
2022/10/06 10:40:50;;;;;;;23.23;2.10;;;;;;;16.76;56.67;102857.84;4993347;28;19910;-40
2022/10/06 10:43:44;;;;;;;15.95;2.22;;;;;;;16.87;55.97;102849.31;4993181;28;20080;-40
2022/10/06 10:46:27;;;;;;;11.13;2.15;;;;;;;16.99;54.96;102836.22;4991057;28;20030;-40
2022/10/06 10:49:04;;;;;;;19.02;2.38;;;;;;;17.04;55.42;102835.69;4973647;28;20026;-40
2022/10/06 10:51:38;;;;;;;10.27;1.30;;;;;;;17.21;53.25;102844.63;5007480;28;20037;-40
2022/10/06 10:54:09;;;;;;;18.05;2.25;;;;;;;17.22;53.84;102835.41;4991303;28;20358;-40
2022/10/06 10:56:35;;;;;;;18.98;2.30;;;;;;;17.36;54.52;102844.72;4999122;28;20036;-41
2022/10/06 10:59:34;;;;;;;17.70;2.00;;;;;;;17.28;54.85;102842.91;5011265;28;20034;-40
2022/10/06 11:02:17;;;;;;;19.67;2.55;;;;;;;17.33;53.74;102845.94;4992336;28;20025;-40
2022/10/06 11:04:46;;;;;;;14.57;1.67;;;;;;;17.34;53.83;102848.47;4993490;28;20468;-40
2022/10/06 11:07:44;;;;;;;19.15;2.25;;;;;;;17.12;53.40;102849.25;4979618;28;20054;-39
2022/10/06 11:10:16;;;;;;;17.17;2.35;;;;;;;17.08;53.01;102853.34;4968702;28;20458;-39
2022/10/06 11:13:26;;;;;;;15.13;2.55;;;;;;;16.96;53.40;102860.22;4970355;28;20046;-40
2022/10/06 11:16:05;;;;;;;9.82;1.50;;;;;;;16.90;54.37;102856.28;4971854;28;20030;-39
2022/10/06 11:19:02;;;;;;;19.33;2.22;;;;;;;17.00;54.25;102854.22;4971291;28;20022;-39
2022/10/06 11:22:08;;;;;;;17.70;1.90;;;;;;;17.38;54.02;102853.53;4969833;28;20114;-41
2022/10/06 11:24:43;;;;;;;15.35;2.25;;;;;;;17.26;53.81;102851.22;4969851;28;20037;-39
2022/10/06 11:27:33;;;;;;;13.85;2.28;;;;;;;17.25;53.56;102856.84;4970819;28;20054;-39
2022/10/06 11:30:13;;;;;;;19.15;2.00;;;;;;;16.97;53.65;102859.16;4969853;28;20035;-40
2022/10/06 11:33:12;;;;;;;13.80;1.67;;;;;;;17.06;54.16;102863.53;4969760;28;20494;-40
2022/10/06 11:35:40;;;;;;;18.38;1.88;;;;;;;17.38;52.00;102858.97;4972193;28;20043;-39
2022/10/06 11:38:19;;;;;;;14.65;1.38;;;;;;;17.75;52.24;102872.75;4984849;28;20041;-39
2022/10/06 11:40:56;;;;;;;14.73;1.60;;;;;;;18.09;50.98;102874.25;4970983;28;20031;-40